sensor_id;sensor_type;location;lat;lon;timestamp;P1;durP1;ratioP1;P2;durP2;ratioP2
35128;SDS011;21301;43.626;10.580;2023-05-07T00:01:58;5.63;;;2.35;;
35128;SDS011;21301;43.626;10.580;2023-05-07T00:04:24;5.32;;;3.08;;
35128;SDS011;21301;43.626;10.580;2023-05-07T00:06:50;5.72;;;3.20;;
35128;SDS011;21301;43.626;10.580;2023-05-07T00:09:16;5.45;;;2.67;;
35128;SDS011;21301;43.626;10.580;2023-05-07T00:11:42;6.30;;;2.95;;
35128;SDS011;21301;43.626;10.580;2023-05-07T00:14:07;12.13;;;3.40;;
35128;SDS011;21301;43.626;10.580;2023-05-07T00:16:33;6.72;;;3.03;;
35128;SDS011;21301;43.626;10.580;2023-05-07T00:18:59;8.68;;;3.75;;
35128;SDS011;21301;43.626;10.580;2023-05-07T00:21:25;6.43;;;3.20;;
35128;SDS011;21301;43.626;10.580;2023-05-07T00:23:53;8.23;;;3.22;;
35128;SDS011;21301;43.626;10.580;2023-05-07T00:26:19;5.40;;;3.25;;
35128;SDS011;21301;43.626;10.580;2023-05-07T00:28:48;5.78;;;3.60;;
35128;SDS011;21301;43.626;10.580;2023-05-07T00:31:14;5.97;;;3.55;;
35128;SDS011;21301;43.626;10.580;2023-05-07T00:33:40;6.57;;;3.55;;
35128;SDS011;21301;43.626;10.580;2023-05-07T00:36:05;6.60;;;2.97;;
35128;SDS011;21301;43.626;10.580;2023-05-07T00:38:31;5.93;;;3.10;;
35128;SDS011;21301;43.626;10.580;2023-05-07T00:40:57;7.57;;;3.20;;
35128;SDS011;21301;43.626;10.580;2023-05-07T00:43:23;7.50;;;3.92;;
35128;SDS011;21301;43.626;10.580;2023-05-07T00:45:48;8.27;;;3.35;;
35128;SDS011;21301;43.626;10.580;2023-05-07T00:48:15;6.10;;;3.17;;
35128;SDS011;21301;43.626;10.580;2023-05-07T00:50:41;5.80;;;3.00;;
35128;SDS011;21301;43.626;10.580;2023-05-07T00:53:07;5.85;;;2.42;;
35128;SDS011;21301;43.626;10.580;2023-05-07T00:55:33;5.53;;;2.95;;
35128;SDS011;21301;43.626;10.580;2023-05-07T00:58:00;7.03;;;3.20;;
35128;SDS011;21301;43.626;10.580;2023-05-07T01:00:26;9.05;;;3.15;;
35128;SDS011;21301;43.626;10.580;2023-05-07T01:02:53;7.15;;;3.70;;
35128;SDS011;21301;43.626;10.580;2023-05-07T01:05:19;5.57;;;2.60;;
35128;SDS011;21301;43.626;10.580;2023-05-07T01:07:47;8.32;;;3.40;;
35128;SDS011;21301;43.626;10.580;2023-05-07T01:10:14;5.70;;;3.50;;
35128;SDS011;21301;43.626;10.580;2023-05-07T01:12:41;4.90;;;2.60;;
35128;SDS011;21301;43.626;10.580;2023-05-07T01:15:08;5.80;;;2.70;;
35128;SDS011;21301;43.626;10.580;2023-05-07T01:17:35;5.30;;;3.10;;
35128;SDS011;21301;43.626;10.580;2023-05-07T01:20:06;5.65;;;3.08;;
35128;SDS011;21301;43.626;10.580;2023-05-07T01:22:39;5.35;;;3.00;;
35128;SDS011;21301;43.626;10.580;2023-05-07T01:27:34;6.80;;;2.88;;
35128;SDS011;21301;43.626;10.580;2023-05-07T01:30:01;6.97;;;3.40;;
35128;SDS011;21301;43.626;10.580;2023-05-07T01:32:38;6.40;;;3.35;;
35128;SDS011;21301;43.626;10.580;2023-05-07T01:35:09;7.82;;;2.53;;
35128;SDS011;21301;43.626;10.580;2023-05-07T01:37:38;5.70;;;2.83;;
35128;SDS011;21301;43.626;10.580;2023-05-07T01:40:05;7.38;;;3.30;;
35128;SDS011;21301;43.626;10.580;2023-05-07T01:42:32;6.40;;;2.67;;
35128;SDS011;21301;43.626;10.580;2023-05-07T01:44:59;8.00;;;3.55;;
35128;SDS011;21301;43.626;10.580;2023-05-07T01:47:25;4.85;;;2.70;;
35128;SDS011;21301;43.626;10.580;2023-05-07T01:49:51;4.90;;;2.88;;
35128;SDS011;21301;43.626;10.580;2023-05-07T01:52:18;5.57;;;3.25;;
35128;SDS011;21301;43.626;10.580;2023-05-07T01:54:44;5.10;;;2.58;;
35128;SDS011;21301;43.626;10.580;2023-05-07T01:57:09;6.45;;;2.90;;
35128;SDS011;21301;43.626;10.580;2023-05-07T01:59:36;5.00;;;2.40;;
35128;SDS011;21301;43.626;10.580;2023-05-07T02:02:02;5.40;;;2.58;;
35128;SDS011;21301;43.626;10.580;2023-05-07T02:04:28;5.15;;;2.97;;
35128;SDS011;21301;43.626;10.580;2023-05-07T02:06:54;7.80;;;3.03;;
35128;SDS011;21301;43.626;10.580;2023-05-07T02:09:21;4.40;;;2.53;;
35128;SDS011;21301;43.626;10.580;2023-05-07T02:11:49;5.10;;;2.85;;
35128;SDS011;21301;43.626;10.580;2023-05-07T02:14:16;4.72;;;2.67;;
35128;SDS011;21301;43.626;10.580;2023-05-07T02:16:42;6.47;;;2.45;;
35128;SDS011;21301;43.626;10.580;2023-05-07T02:19:10;5.43;;;2.63;;
35128;SDS011;21301;43.626;10.580;2023-05-07T02:21:36;6.22;;;2.60;;
35128;SDS011;21301;43.626;10.580;2023-05-07T02:24:02;6.85;;;2.22;;
35128;SDS011;21301;43.626;10.580;2023-05-07T02:26:27;7.10;;;3.17;;
35128;SDS011;21301;43.626;10.580;2023-05-07T02:28:54;5.63;;;2.90;;
35128;SDS011;21301;43.626;10.580;2023-05-07T02:31:20;5.72;;;3.17;;
35128;SDS011;21301;43.626;10.580;2023-05-07T02:33:45;5.88;;;2.47;;
35128;SDS011;21301;43.626;10.580;2023-05-07T02:36:12;6.05;;;3.15;;
35128;SDS011;21301;43.626;10.580;2023-05-07T02:38:50;5.10;;;2.78;;
35128;SDS011;21301;43.626;10.580;2023-05-07T02:41:16;6.82;;;2.60;;
35128;SDS011;21301;43.626;10.580;2023-05-07T02:43:42;7.57;;;2.60;;
35128;SDS011;21301;43.626;10.580;2023-05-07T02:46:09;5.00;;;2.60;;
35128;SDS011;21301;43.626;10.580;2023-05-07T02:48:39;6.32;;;3.17;;
35128;SDS011;21301;43.626;10.580;2023-05-07T02:51:04;4.40;;;2.15;;
35128;SDS011;21301;43.626;10.580;2023-05-07T02:53:31;5.63;;;2.38;;
35128;SDS011;21301;43.626;10.580;2023-05-07T02:55:58;9.25;;;2.83;;
35128;SDS011;21301;43.626;10.580;2023-05-07T02:58:25;5.15;;;2.22;;
35128;SDS011;21301;43.626;10.580;2023-05-07T03:00:52;5.93;;;2.42;;
35128;SDS011;21301;43.626;10.580;2023-05-07T03:03:39;6.47;;;3.13;;
35128;SDS011;21301;43.626;10.580;2023-05-07T03:06:06;9.90;;;3.10;;
35128;SDS011;21301;43.626;10.580;2023-05-07T03:08:32;6.45;;;2.67;;
35128;SDS011;21301;43.626;10.580;2023-05-07T03:10:58;8.45;;;2.85;;
35128;SDS011;21301;43.626;10.580;2023-05-07T03:13:24;5.47;;;2.72;;
35128;SDS011;21301;43.626;10.580;2023-05-07T03:15:51;5.28;;;3.22;;
35128;SDS011;21301;43.626;10.580;2023-05-07T03:18:17;5.32;;;2.45;;
35128;SDS011;21301;43.626;10.580;2023-05-07T03:20:43;7.88;;;2.78;;
35128;SDS011;21301;43.626;10.580;2023-05-07T03:23:09;4.63;;;2.63;;
35128;SDS011;21301;43.626;10.580;2023-05-07T03:25:35;5.15;;;2.45;;
35128;SDS011;21301;43.626;10.580;2023-05-07T03:28:01;5.22;;;2.78;;
35128;SDS011;21301;43.626;10.580;2023-05-07T03:30:35;5.63;;;2.30;;
35128;SDS011;21301;43.626;10.580;2023-05-07T03:33:01;8.48;;;3.13;;
35128;SDS011;21301;43.626;10.580;2023-05-07T03:35:27;5.53;;;2.67;;
35128;SDS011;21301;43.626;10.580;2023-05-07T03:37:54;7.82;;;3.25;;
35128;SDS011;21301;43.626;10.580;2023-05-07T03:40:21;4.57;;;2.83;;
35128;SDS011;21301;43.626;10.580;2023-05-07T03:42:51;6.13;;;2.58;;
35128;SDS011;21301;43.626;10.580;2023-05-07T03:45:20;5.43;;;2.55;;
35128;SDS011;21301;43.626;10.580;2023-05-07T03:47:54;10.25;;;3.05;;
35128;SDS011;21301;43.626;10.580;2023-05-07T03:50:21;6.25;;;2.45;;
35128;SDS011;21301;43.626;10.580;2023-05-07T03:52:47;5.20;;;2.97;;
35128;SDS011;21301;43.626;10.580;2023-05-07T03:55:15;6.55;;;2.58;;
35128;SDS011;21301;43.626;10.580;2023-05-07T03:57:47;5.28;;;2.92;;
35128;SDS011;21301;43.626;10.580;2023-05-07T04:00:13;4.90;;;2.83;;
35128;SDS011;21301;43.626;10.580;2023-05-07T04:02:48;5.30;;;2.45;;
35128;SDS011;21301;43.626;10.580;2023-05-07T04:05:18;5.55;;;2.47;;
35128;SDS011;21301;43.626;10.580;2023-05-07T04:07:47;8.15;;;2.80;;
35128;SDS011;21301;43.626;10.580;2023-05-07T04:10:17;4.55;;;2.70;;
35128;SDS011;21301;43.626;10.580;2023-05-07T04:12:45;6.38;;;3.10;;
35128;SDS011;21301;43.626;10.580;2023-05-07T04:15:16;4.72;;;2.72;;
35128;SDS011;21301;43.626;10.580;2023-05-07T04:17:42;5.50;;;2.60;;
35128;SDS011;21301;43.626;10.580;2023-05-07T04:20:13;4.55;;;2.35;;
35128;SDS011;21301;43.626;10.580;2023-05-07T04:22:40;5.25;;;2.97;;
35128;SDS011;21301;43.626;10.580;2023-05-07T04:25:07;4.45;;;2.40;;
35128;SDS011;21301;43.626;10.580;2023-05-07T04:27:35;6.30;;;2.80;;
35128;SDS011;21301;43.626;10.580;2023-05-07T04:30:02;6.65;;;3.10;;
35128;SDS011;21301;43.626;10.580;2023-05-07T04:32:32;4.88;;;2.20;;
35128;SDS011;21301;43.626;10.580;2023-05-07T04:34:58;4.43;;;2.50;;
35128;SDS011;21301;43.626;10.580;2023-05-07T04:37:25;5.43;;;2.55;;
35128;SDS011;21301;43.626;10.580;2023-05-07T04:39:52;4.97;;;2.47;;
35128;SDS011;21301;43.626;10.580;2023-05-07T04:42:19;6.07;;;2.60;;
35128;SDS011;21301;43.626;10.580;2023-05-07T04:44:44;5.57;;;2.63;;
35128;SDS011;21301;43.626;10.580;2023-05-07T04:47:11;7.68;;;3.22;;
35128;SDS011;21301;43.626;10.580;2023-05-07T04:49:38;8.25;;;2.95;;
35128;SDS011;21301;43.626;10.580;2023-05-07T04:52:05;4.07;;;2.28;;
35128;SDS011;21301;43.626;10.580;2023-05-07T04:54:31;6.72;;;2.70;;
35128;SDS011;21301;43.626;10.580;2023-05-07T04:56:58;4.03;;;1.98;;
35128;SDS011;21301;43.626;10.580;2023-05-07T04:59:25;5.88;;;2.20;;
35128;SDS011;21301;43.626;10.580;2023-05-07T05:01:50;7.30;;;1.98;;
35128;SDS011;21301;43.626;10.580;2023-05-07T05:04:17;5.72;;;2.28;;
35128;SDS011;21301;43.626;10.580;2023-05-07T05:06:42;6.47;;;2.50;;
35128;SDS011;21301;43.626;10.580;2023-05-07T05:09:09;7.97;;;2.40;;
35128;SDS011;21301;43.626;10.580;2023-05-07T05:11:36;5.20;;;1.95;;
35128;SDS011;21301;43.626;10.580;2023-05-07T05:14:03;4.95;;;2.00;;
35128;SDS011;21301;43.626;10.580;2023-05-07T05:16:29;5.30;;;2.35;;
35128;SDS011;21301;43.626;10.580;2023-05-07T05:18:54;4.78;;;2.47;;
35128;SDS011;21301;43.626;10.580;2023-05-07T05:21:20;3.90;;;2.25;;
35128;SDS011;21301;43.626;10.580;2023-05-07T05:23:49;6.35;;;2.40;;
35128;SDS011;21301;43.626;10.580;2023-05-07T05:26:19;5.07;;;2.38;;
35128;SDS011;21301;43.626;10.580;2023-05-07T05:28:46;5.60;;;2.55;;
35128;SDS011;21301;43.626;10.580;2023-05-07T05:31:14;6.45;;;3.10;;
35128;SDS011;21301;43.626;10.580;2023-05-07T05:33:41;5.25;;;2.55;;
35128;SDS011;21301;43.626;10.580;2023-05-07T05:36:09;5.20;;;2.42;;
35128;SDS011;21301;43.626;10.580;2023-05-07T05:38:36;5.30;;;2.78;;
35128;SDS011;21301;43.626;10.580;2023-05-07T05:41:02;7.88;;;3.42;;
35128;SDS011;21301;43.626;10.580;2023-05-07T05:43:29;4.63;;;2.30;;
35128;SDS011;21301;43.626;10.580;2023-05-07T05:45:55;5.88;;;2.88;;
35128;SDS011;21301;43.626;10.580;2023-05-07T05:48:22;5.28;;;2.70;;
35128;SDS011;21301;43.626;10.580;2023-05-07T05:50:48;7.22;;;2.40;;
35128;SDS011;21301;43.626;10.580;2023-05-07T05:53:16;5.70;;;2.45;;
35128;SDS011;21301;43.626;10.580;2023-05-07T05:55:42;5.93;;;2.88;;
35128;SDS011;21301;43.626;10.580;2023-05-07T05:58:09;7.28;;;3.53;;
35128;SDS011;21301;43.626;10.580;2023-05-07T06:00:39;5.63;;;2.95;;
35128;SDS011;21301;43.626;10.580;2023-05-07T06:03:06;5.57;;;3.17;;
35128;SDS011;21301;43.626;10.580;2023-05-07T06:05:33;5.82;;;3.38;;
35128;SDS011;21301;43.626;10.580;2023-05-07T06:07:58;8.15;;;3.10;;
35128;SDS011;21301;43.626;10.580;2023-05-07T06:10:29;6.03;;;3.25;;
35128;SDS011;21301;43.626;10.580;2023-05-07T06:12:59;6.38;;;3.08;;
35128;SDS011;21301;43.626;10.580;2023-05-07T06:15:25;5.32;;;2.97;;
35128;SDS011;21301;43.626;10.580;2023-05-07T06:17:51;6.32;;;4.07;;
35128;SDS011;21301;43.626;10.580;2023-05-07T06:20:17;7.43;;;4.95;;
35128;SDS011;21301;43.626;10.580;2023-05-07T06:22:43;7.80;;;4.65;;
35128;SDS011;21301;43.626;10.580;2023-05-07T06:25:10;9.82;;;4.85;;
35128;SDS011;21301;43.626;10.580;2023-05-07T06:27:37;7.93;;;5.07;;
35128;SDS011;21301;43.626;10.580;2023-05-07T06:30:05;8.90;;;5.43;;
35128;SDS011;21301;43.626;10.580;2023-05-07T06:32:32;7.63;;;4.45;;
35128;SDS011;21301;43.626;10.580;2023-05-07T06:34:57;8.73;;;4.10;;
35128;SDS011;21301;43.626;10.580;2023-05-07T06:37:23;5.65;;;3.45;;
35128;SDS011;21301;43.626;10.580;2023-05-07T06:39:57;5.10;;;3.00;;
35128;SDS011;21301;43.626;10.580;2023-05-07T06:42:23;5.35;;;2.58;;
35128;SDS011;21301;43.626;10.580;2023-05-07T06:44:49;5.60;;;3.15;;
35128;SDS011;21301;43.626;10.580;2023-05-07T06:47:16;7.70;;;3.35;;
35128;SDS011;21301;43.626;10.580;2023-05-07T06:49:45;12.88;;;7.60;;
35128;SDS011;21301;43.626;10.580;2023-05-07T06:52:15;11.43;;;6.47;;
35128;SDS011;21301;43.626;10.580;2023-05-07T06:54:41;10.82;;;6.75;;
35128;SDS011;21301;43.626;10.580;2023-05-07T06:57:08;11.07;;;6.70;;
35128;SDS011;21301;43.626;10.580;2023-05-07T06:59:34;6.57;;;4.45;;
35128;SDS011;21301;43.626;10.580;2023-05-07T07:02:00;9.40;;;4.30;;
35128;SDS011;21301;43.626;10.580;2023-05-07T07:04:26;7.35;;;4.55;;
35128;SDS011;21301;43.626;10.580;2023-05-07T07:07:00;8.93;;;5.20;;
35128;SDS011;21301;43.626;10.580;2023-05-07T07:09:27;10.85;;;4.13;;
35128;SDS011;21301;43.626;10.580;2023-05-07T07:11:53;9.55;;;5.00;;
35128;SDS011;21301;43.626;10.580;2023-05-07T07:14:20;9.05;;;4.35;;
35128;SDS011;21301;43.626;10.580;2023-05-07T07:16:49;10.88;;;5.25;;
35128;SDS011;21301;43.626;10.580;2023-05-07T07:19:17;8.30;;;4.93;;
35128;SDS011;21301;43.626;10.580;2023-05-07T07:21:44;8.25;;;4.95;;
35128;SDS011;21301;43.626;10.580;2023-05-07T07:24:12;8.52;;;5.28;;
35128;SDS011;21301;43.626;10.580;2023-05-07T07:26:44;8.88;;;4.75;;
35128;SDS011;21301;43.626;10.580;2023-05-07T07:29:11;6.05;;;3.67;;
35128;SDS011;21301;43.626;10.580;2023-05-07T07:31:37;5.25;;;2.80;;
35128;SDS011;21301;43.626;10.580;2023-05-07T07:34:03;12.00;;;4.13;;
35128;SDS011;21301;43.626;10.580;2023-05-07T07:36:30;8.07;;;4.25;;
35128;SDS011;21301;43.626;10.580;2023-05-07T07:38:56;8.77;;;5.38;;
35128;SDS011;21301;43.626;10.580;2023-05-07T07:41:22;6.53;;;3.53;;
35128;SDS011;21301;43.626;10.580;2023-05-07T07:43:48;8.75;;;4.38;;
35128;SDS011;21301;43.626;10.580;2023-05-07T07:46:15;8.18;;;4.00;;
35128;SDS011;21301;43.626;10.580;2023-05-07T07:48:42;6.00;;;3.83;;
35128;SDS011;21301;43.626;10.580;2023-05-07T07:51:08;10.18;;;4.15;;
35128;SDS011;21301;43.626;10.580;2023-05-07T07:53:34;9.63;;;4.32;;
35128;SDS011;21301;43.626;10.580;2023-05-07T07:56:00;5.47;;;3.08;;
35128;SDS011;21301;43.626;10.580;2023-05-07T07:58:29;7.50;;;2.90;;
35128;SDS011;21301;43.626;10.580;2023-05-07T08:00:56;10.32;;;3.70;;
35128;SDS011;21301;43.626;10.580;2023-05-07T08:03:22;7.05;;;3.40;;
35128;SDS011;21301;43.626;10.580;2023-05-07T08:05:52;5.95;;;2.70;;
35128;SDS011;21301;43.626;10.580;2023-05-07T08:08:18;6.07;;;3.53;;
35128;SDS011;21301;43.626;10.580;2023-05-07T08:10:44;7.70;;;3.17;;
35128;SDS011;21301;43.626;10.580;2023-05-07T08:13:18;5.25;;;2.50;;
35128;SDS011;21301;43.626;10.580;2023-05-07T08:15:44;5.80;;;2.95;;
35128;SDS011;21301;43.626;10.580;2023-05-07T08:18:11;7.13;;;3.08;;
35128;SDS011;21301;43.626;10.580;2023-05-07T08:20:38;8.90;;;2.80;;
35128;SDS011;21301;43.626;10.580;2023-05-07T08:23:06;5.75;;;2.58;;
35128;SDS011;21301;43.626;10.580;2023-05-07T08:25:33;5.43;;;2.30;;
35128;SDS011;21301;43.626;10.580;2023-05-07T08:28:00;7.22;;;3.45;;
35128;SDS011;21301;43.626;10.580;2023-05-07T08:30:26;5.57;;;2.95;;
35128;SDS011;21301;43.626;10.580;2023-05-07T08:32:52;6.32;;;3.10;;
35128;SDS011;21301;43.626;10.580;2023-05-07T08:35:18;5.97;;;3.45;;
35128;SDS011;21301;43.626;10.580;2023-05-07T08:37:44;6.32;;;3.25;;
35128;SDS011;21301;43.626;10.580;2023-05-07T08:40:11;6.50;;;2.83;;
35128;SDS011;21301;43.626;10.580;2023-05-07T08:42:37;5.00;;;2.60;;
35128;SDS011;21301;43.626;10.580;2023-05-07T08:45:08;5.28;;;2.90;;
35128;SDS011;21301;43.626;10.580;2023-05-07T08:47:43;4.40;;;2.35;;
35128;SDS011;21301;43.626;10.580;2023-05-07T08:50:10;4.72;;;2.83;;
35128;SDS011;21301;43.626;10.580;2023-05-07T08:52:37;4.95;;;2.53;;
35128;SDS011;21301;43.626;10.580;2023-05-07T08:55:04;6.30;;;2.53;;
35128;SDS011;21301;43.626;10.580;2023-05-07T08:57:31;6.45;;;2.38;;
35128;SDS011;21301;43.626;10.580;2023-05-07T08:59:57;4.88;;;1.95;;
35128;SDS011;21301;43.626;10.580;2023-05-07T09:02:23;4.70;;;1.85;;
35128;SDS011;21301;43.626;10.580;2023-05-07T09:04:49;5.00;;;2.47;;
35128;SDS011;21301;43.626;10.580;2023-05-07T09:07:16;4.75;;;1.88;;
35128;SDS011;21301;43.626;10.580;2023-05-07T09:09:44;8.82;;;2.33;;
35128;SDS011;21301;43.626;10.580;2023-05-07T09:12:11;4.20;;;2.30;;
35128;SDS011;21301;43.626;10.580;2023-05-07T09:14:37;5.95;;;2.38;;
35128;SDS011;21301;43.626;10.580;2023-05-07T09:17:04;9.00;;;3.20;;
35128;SDS011;21301;43.626;10.580;2023-05-07T09:19:30;4.20;;;1.83;;
35128;SDS011;21301;43.626;10.580;2023-05-07T09:21:59;6.28;;;2.30;;
35128;SDS011;21301;43.626;10.580;2023-05-07T09:24:29;3.75;;;1.77;;
35128;SDS011;21301;43.626;10.580;2023-05-07T09:27:01;3.70;;;1.80;;
35128;SDS011;21301;43.626;10.580;2023-05-07T09:29:28;3.90;;;1.90;;
35128;SDS011;21301;43.626;10.580;2023-05-07T09:31:55;5.10;;;1.73;;
35128;SDS011;21301;43.626;10.580;2023-05-07T09:34:21;5.05;;;2.05;;
35128;SDS011;21301;43.626;10.580;2023-05-07T09:36:48;5.75;;;1.98;;
35128;SDS011;21301;43.626;10.580;2023-05-07T09:39:14;4.65;;;1.70;;
35128;SDS011;21301;43.626;10.580;2023-05-07T09:41:44;5.22;;;1.63;;
35128;SDS011;21301;43.626;10.580;2023-05-07T09:44:17;6.20;;;1.70;;
35128;SDS011;21301;43.626;10.580;2023-05-07T09:46:50;4.53;;;1.70;;
35128;SDS011;21301;43.626;10.580;2023-05-07T09:49:24;5.28;;;2.05;;
35128;SDS011;21301;43.626;10.580;2023-05-07T09:52:04;4.18;;;1.70;;
35128;SDS011;21301;43.626;10.580;2023-05-07T09:54:35;5.50;;;1.52;;
35128;SDS011;21301;43.626;10.580;2023-05-07T09:57:04;5.40;;;1.92;;
35128;SDS011;21301;43.626;10.580;2023-05-07T09:59:32;4.20;;;2.00;;
35128;SDS011;21301;43.626;10.580;2023-05-07T10:02:03;4.35;;;1.58;;
35128;SDS011;21301;43.626;10.580;2023-05-07T10:04:31;5.65;;;1.63;;
35128;SDS011;21301;43.626;10.580;2023-05-07T10:06:58;4.25;;;1.45;;
35128;SDS011;21301;43.626;10.580;2023-05-07T10:09:25;7.07;;;2.28;;
35128;SDS011;21301;43.626;10.580;2023-05-07T10:11:52;5.15;;;1.80;;
35128;SDS011;21301;43.626;10.580;2023-05-07T10:14:21;4.40;;;1.73;;
35128;SDS011;21301;43.626;10.580;2023-05-07T10:16:47;3.58;;;1.70;;
35128;SDS011;21301;43.626;10.580;2023-05-07T10:19:15;5.00;;;2.33;;
35128;SDS011;21301;43.626;10.580;2023-05-07T10:21:50;3.83;;;2.05;;
35128;SDS011;21301;43.626;10.580;2023-05-07T10:24:29;4.82;;;1.50;;
35128;SDS011;21301;43.626;10.580;2023-05-07T10:27:00;3.80;;;1.63;;
35128;SDS011;21301;43.626;10.580;2023-05-07T10:32:47;4.35;;;1.95;;
35128;SDS011;21301;43.626;10.580;2023-05-07T10:35:26;3.83;;;1.67;;
35128;SDS011;21301;43.626;10.580;2023-05-07T10:37:54;3.63;;;1.98;;
35128;SDS011;21301;43.626;10.580;2023-05-07T10:40:23;3.92;;;1.90;;
35128;SDS011;21301;43.626;10.580;2023-05-07T10:45:36;3.60;;;2.08;;
35128;SDS011;21301;43.626;10.580;2023-05-07T10:48:06;7.75;;;2.15;;
35128;SDS011;21301;43.626;10.580;2023-05-07T10:50:39;4.63;;;1.30;;
35128;SDS011;21301;43.626;10.580;2023-05-07T10:58:50;6.70;;;1.80;;
35128;SDS011;21301;43.626;10.580;2023-05-07T11:07:57;3.15;;;1.13;;
35128;SDS011;21301;43.626;10.580;2023-05-07T11:13:45;3.38;;;1.50;;
35128;SDS011;21301;43.626;10.580;2023-05-07T11:16:32;4.47;;;1.52;;
35128;SDS011;21301;43.626;10.580;2023-05-07T11:19:17;3.80;;;1.50;;
35128;SDS011;21301;43.626;10.580;2023-05-07T11:25:14;4.65;;;1.80;;
35128;SDS011;21301;43.626;10.580;2023-05-07T11:27:52;3.72;;;1.60;;
35128;SDS011;21301;43.626;10.580;2023-05-07T11:30:19;3.65;;;1.65;;
35128;SDS011;21301;43.626;10.580;2023-05-07T11:32:47;3.03;;;1.35;;
35128;SDS011;21301;43.626;10.580;2023-05-07T11:35:15;3.20;;;1.70;;
35128;SDS011;21301;43.626;10.580;2023-05-07T11:37:42;3.17;;;1.52;;
35128;SDS011;21301;43.626;10.580;2023-05-07T11:40:10;3.00;;;1.83;;
35128;SDS011;21301;43.626;10.580;2023-05-07T11:42:37;5.63;;;1.98;;
35128;SDS011;21301;43.626;10.580;2023-05-07T11:45:04;4.18;;;1.52;;
35128;SDS011;21301;43.626;10.580;2023-05-07T11:47:31;3.75;;;1.60;;
35128;SDS011;21301;43.626;10.580;2023-05-07T11:50:02;3.60;;;1.75;;
35128;SDS011;21301;43.626;10.580;2023-05-07T11:52:32;4.10;;;1.98;;
35128;SDS011;21301;43.626;10.580;2023-05-07T11:54:59;4.43;;;1.90;;
35128;SDS011;21301;43.626;10.580;2023-05-07T11:57:27;4.68;;;1.83;;
35128;SDS011;21301;43.626;10.580;2023-05-07T11:59:57;4.20;;;1.48;;
35128;SDS011;21301;43.626;10.580;2023-05-07T12:02:23;2.92;;;1.33;;
35128;SDS011;21301;43.626;10.580;2023-05-07T12:04:53;3.28;;;1.33;;
35128;SDS011;21301;43.626;10.580;2023-05-07T12:07:20;2.88;;;1.20;;
35128;SDS011;21301;43.626;10.580;2023-05-07T12:09:47;3.95;;;1.40;;
35128;SDS011;21301;43.626;10.580;2023-05-07T12:12:13;2.40;;;1.10;;
35128;SDS011;21301;43.626;10.580;2023-05-07T12:14:43;4.85;;;1.48;;
35128;SDS011;21301;43.626;10.580;2023-05-07T12:17:10;3.90;;;1.50;;
35128;SDS011;21301;43.626;10.580;2023-05-07T12:19:39;2.70;;;1.40;;
35128;SDS011;21301;43.626;10.580;2023-05-07T12:22:07;3.42;;;1.73;;
35128;SDS011;21301;43.626;10.580;2023-05-07T12:24:50;3.83;;;1.80;;
35128;SDS011;21301;43.626;10.580;2023-05-07T12:27:22;2.97;;;1.40;;
35128;SDS011;21301;43.626;10.580;2023-05-07T12:29:48;3.97;;;1.65;;
35128;SDS011;21301;43.626;10.580;2023-05-07T12:32:15;5.68;;;2.63;;
35128;SDS011;21301;43.626;10.580;2023-05-07T12:34:43;4.18;;;1.52;;
35128;SDS011;21301;43.626;10.580;2023-05-07T12:37:09;3.55;;;1.35;;
35128;SDS011;21301;43.626;10.580;2023-05-07T12:39:35;5.72;;;1.75;;
35128;SDS011;21301;43.626;10.580;2023-05-07T12:42:01;3.35;;;1.33;;
35128;SDS011;21301;43.626;10.580;2023-05-07T12:44:31;3.20;;;1.15;;
35128;SDS011;21301;43.626;10.580;2023-05-07T12:46:58;3.33;;;1.45;;
35128;SDS011;21301;43.626;10.580;2023-05-07T12:49:27;5.15;;;1.50;;
35128;SDS011;21301;43.626;10.580;2023-05-07T12:51:53;5.95;;;1.50;;
35128;SDS011;21301;43.626;10.580;2023-05-07T12:54:32;3.30;;;1.52;;
35128;SDS011;21301;43.626;10.580;2023-05-07T12:57:05;2.72;;;1.20;;
35128;SDS011;21301;43.626;10.580;2023-05-07T13:01:58;2.28;;;0.95;;
35128;SDS011;21301;43.626;10.580;2023-05-07T13:04:24;2.92;;;1.15;;
35128;SDS011;21301;43.626;10.580;2023-05-07T13:06:51;1.83;;;0.88;;
35128;SDS011;21301;43.626;10.580;2023-05-07T13:09:16;3.35;;;1.25;;
35128;SDS011;21301;43.626;10.580;2023-05-07T13:11:42;3.92;;;1.65;;
35128;SDS011;21301;43.626;10.580;2023-05-07T13:14:08;2.95;;;1.17;;
35128;SDS011;21301;43.626;10.580;2023-05-07T13:16:34;2.97;;;1.10;;
35128;SDS011;21301;43.626;10.580;2023-05-07T13:18:59;3.13;;;1.15;;
35128;SDS011;21301;43.626;10.580;2023-05-07T13:21:25;2.13;;;1.00;;
35128;SDS011;21301;43.626;10.580;2023-05-07T13:23:52;5.32;;;2.10;;
35128;SDS011;21301;43.626;10.580;2023-05-07T13:26:17;19.10;;;3.50;;
35128;SDS011;21301;43.626;10.580;2023-05-07T13:28:43;11.05;;;2.38;;
35128;SDS011;21301;43.626;10.580;2023-05-07T13:31:09;12.55;;;2.50;;
35128;SDS011;21301;43.626;10.580;2023-05-07T13:33:35;3.60;;;1.55;;
35128;SDS011;21301;43.626;10.580;2023-05-07T13:36:01;7.80;;;1.60;;
35128;SDS011;21301;43.626;10.580;2023-05-07T13:38:29;3.33;;;1.30;;
35128;SDS011;21301;43.626;10.580;2023-05-07T13:40:56;3.60;;;1.42;;
35128;SDS011;21301;43.626;10.580;2023-05-07T13:43:21;2.65;;;1.10;;
35128;SDS011;21301;43.626;10.580;2023-05-07T13:45:47;3.10;;;1.15;;
35128;SDS011;21301;43.626;10.580;2023-05-07T13:48:13;3.25;;;1.20;;
35128;SDS011;21301;43.626;10.580;2023-05-07T13:50:38;3.78;;;1.40;;
35128;SDS011;21301;43.626;10.580;2023-05-07T13:53:04;3.88;;;1.40;;
35128;SDS011;21301;43.626;10.580;2023-05-07T13:55:30;2.88;;;1.20;;
35128;SDS011;21301;43.626;10.580;2023-05-07T13:57:57;3.00;;;1.30;;
35128;SDS011;21301;43.626;10.580;2023-05-07T14:00:25;3.03;;;1.45;;
35128;SDS011;21301;43.626;10.580;2023-05-07T14:02:51;3.22;;;1.15;;
35128;SDS011;21301;43.626;10.580;2023-05-07T14:05:18;3.13;;;1.13;;
35128;SDS011;21301;43.626;10.580;2023-05-07T14:07:45;3.30;;;1.40;;
35128;SDS011;21301;43.626;10.580;2023-05-07T14:10:12;3.03;;;0.95;;
35128;SDS011;21301;43.626;10.580;2023-05-07T14:12:38;3.42;;;1.17;;
35128;SDS011;21301;43.626;10.580;2023-05-07T14:15:04;2.67;;;1.08;;
35128;SDS011;21301;43.626;10.580;2023-05-07T14:17:30;2.85;;;1.13;;
35128;SDS011;21301;43.626;10.580;2023-05-07T14:19:56;2.65;;;1.20;;
35128;SDS011;21301;43.626;10.580;2023-05-07T14:22:22;2.65;;;1.15;;
35128;SDS011;21301;43.626;10.580;2023-05-07T14:24:48;3.60;;;0.82;;
35128;SDS011;21301;43.626;10.580;2023-05-07T14:27:15;2.88;;;1.10;;
35128;SDS011;21301;43.626;10.580;2023-05-07T14:29:40;1.88;;;1.00;;
35128;SDS011;21301;43.626;10.580;2023-05-07T14:32:07;2.63;;;1.02;;
35128;SDS011;21301;43.626;10.580;2023-05-07T14:34:33;3.25;;;0.85;;
35128;SDS011;21301;43.626;10.580;2023-05-07T14:36:59;2.30;;;1.00;;
35128;SDS011;21301;43.626;10.580;2023-05-07T14:39:25;2.70;;;1.13;;
35128;SDS011;21301;43.626;10.580;2023-05-07T14:41:51;2.40;;;1.13;;
35128;SDS011;21301;43.626;10.580;2023-05-07T14:44:19;3.10;;;1.80;;
35128;SDS011;21301;43.626;10.580;2023-05-07T14:46:46;4.78;;;1.90;;
35128;SDS011;21301;43.626;10.580;2023-05-07T14:49:11;3.45;;;1.30;;
35128;SDS011;21301;43.626;10.580;2023-05-07T14:51:42;3.35;;;1.45;;
35128;SDS011;21301;43.626;10.580;2023-05-07T14:54:09;3.38;;;1.17;;
35128;SDS011;21301;43.626;10.580;2023-05-07T14:56:35;4.57;;;1.58;;
35128;SDS011;21301;43.626;10.580;2023-05-07T14:59:02;3.78;;;1.58;;
35128;SDS011;21301;43.626;10.580;2023-05-07T15:01:28;5.65;;;1.20;;
35128;SDS011;21301;43.626;10.580;2023-05-07T15:03:54;3.22;;;1.25;;
35128;SDS011;21301;43.626;10.580;2023-05-07T15:06:20;2.88;;;1.20;;